Time;durP1;ratioP1;P1;durP2;ratioP2;P2;SDS_P1;SDS_P2;PMS_P1;PMS_P2;Temp;Humidity;BMP_temperature;BMP_pressure;BME280_temperature;BME280_humidity;BME280_pressure;Samples;Min_cycle;Max_cycle;Signal;HPM_P1;HPM_P2
2022/10/25 00:01:51;;;;;;;3.63;1.30;;;10.40;99.90;;;;;;5094649;28;20590;-74
2022/10/25 00:04:17;;;;;;;2.20;1.60;;;10.50;99.90;;;;;;5094926;28;20606;-74
2022/10/25 00:06:44;;;;;;;3.40;1.43;;;10.40;99.90;;;;;;5094800;28;20228;-75
2022/10/25 00:09:11;;;;;;;2.43;1.50;;;10.60;99.90;;;;;;5094557;28;20237;-75
2022/10/25 00:11:38;;;;;;;4.63;1.70;;;10.50;99.90;;;;;;5094619;28;20595;-75
2022/10/25 00:14:06;;;;;;;1.80;1.50;;;10.40;99.90;;;;;;5094541;28;20200;-75
2022/10/25 00:16:35;;;;;;;1.90;1.40;;;10.40;99.90;;;;;;5094534;28;20230;-74
2022/10/25 00:19:04;;;;;;;5.37;1.60;;;10.20;99.90;;;;;;5094371;28;20196;-74
2022/10/25 00:21:31;;;;;;;1.60;1.50;;;10.30;99.90;;;;;;5094339;28;20761;-74
2022/10/25 00:23:58;;;;;;;2.47;1.60;;;10.30;99.90;;;;;;5094262;28;20598;-74
2022/10/25 00:26:25;;;;;;;4.97;1.93;;;10.30;99.90;;;;;;5094202;28;20757;-75
2022/10/25 00:28:53;;;;;;;4.13;1.60;;;10.40;99.90;;;;;;5094154;28;20233;-74
2022/10/25 00:31:20;;;;;;;5.77;1.90;;;10.30;99.90;;;;;;5094421;28;20291;-75
2022/10/25 00:33:46;;;;;;;5.30;2.20;;;10.40;99.90;;;;;;5094292;28;20197;-75
2022/10/25 00:36:16;;;;;;;4.57;1.97;;;10.30;99.90;;;;;;5094214;28;20192;-75
2022/10/25 00:38:44;;;;;;;3.57;1.70;;;10.30;99.90;;;;;;5093873;28;20200;-74
2022/10/25 00:41:12;;;;;;;5.13;1.83;;;10.30;99.90;;;;;;5094101;28;20204;-74
2022/10/25 00:43:41;;;;;;;3.10;1.57;;;10.30;99.90;;;;;;5093959;28;20265;-75
2022/10/25 00:46:13;;;;;;;1.50;1.40;;;10.20;99.90;;;;;;5094010;28;20223;-75
2022/10/25 00:48:41;;;;;;;5.60;1.73;;;10.30;99.90;;;;;;5092652;28;20196;-75
2022/10/25 00:51:09;;;;;;;2.93;1.50;;;10.30;99.90;;;;;;5093921;28;20201;-75
2022/10/25 00:53:37;;;;;;;3.13;1.50;;;10.20;99.90;;;;;;5093864;28;20200;-75
2022/10/25 00:56:13;;;;;;;5.10;1.43;;;10.10;99.90;;;;;;5093688;28;20602;-75
2022/10/25 00:58:45;;;;;;;6.57;1.87;;;10.00;99.90;;;;;;5093642;28;20670;-75
2022/10/25 01:01:13;;;;;;;2.00;1.53;;;10.10;99.90;;;;;;5093842;28;20200;-75
2022/10/25 01:03:41;;;;;;;4.70;1.60;;;10.10;99.90;;;;;;5093790;28;20630;-75
2022/10/25 01:06:13;;;;;;;3.93;1.30;;;10.10;99.90;;;;;;5093486;28;20220;-74
2022/10/25 01:08:42;;;;;;;2.73;1.40;;;10.10;99.90;;;;;;5093453;28;20200;-75
2022/10/25 01:11:09;;;;;;;3.30;1.30;;;10.00;99.90;;;;;;5093768;28;20606;-74
2022/10/25 01:13:37;;;;;;;1.87;1.20;;;10.00;99.90;;;;;;5093596;28;20196;-75
2022/10/25 01:16:14;;;;;;;5.67;1.50;;;10.00;99.90;;;;;;5093447;28;20559;-74
2022/10/25 01:18:48;;;;;;;3.83;1.40;;;10.00;99.90;;;;;;5093296;28;20230;-75
2022/10/25 01:21:38;;;;;;;5.03;1.40;;;10.10;99.90;;;;;;5093264;28;20285;-75
2022/10/25 01:24:43;;;;;;;3.93;1.50;;;10.20;99.90;;;;;;5093286;28;20232;-74
2022/10/25 01:27:40;;;;;;;1.40;1.30;;;10.10;99.90;;;;;;5065191;28;20220;-74
2022/10/25 01:30:14;;;;;;;2.60;1.50;;;10.10;99.90;;;;;;5093367;28;20200;-75
2022/10/25 01:32:53;;;;;;;2.80;1.23;;;10.10;99.90;;;;;;5093168;28;20193;-75
2022/10/25 01:35:27;;;;;;;3.10;1.33;;;10.00;99.90;;;;;;5093259;28;20598;-75
2022/10/25 01:38:05;;;;;;;3.13;1.30;;;10.00;99.90;;;;;;5093012;28;20200;-75
2022/10/25 01:40:40;;;;;;;2.03;1.20;;;9.90;99.90;;;;;;5092853;28;20595;-75
2022/10/25 01:43:13;;;;;;;2.43;1.50;;;9.90;99.90;;;;;;5093102;28;20192;-74
2022/10/25 01:45:44;;;;;;;3.73;1.60;;;9.80;99.90;;;;;;5092988;28;20283;-75
2022/10/25 01:48:16;;;;;;;2.67;1.77;;;9.70;99.90;;;;;;5092920;28;20208;-74
2022/10/25 01:50:45;;;;;;;1.57;1.43;;;9.70;99.90;;;;;;5092951;28;20192;-75
2022/10/25 01:53:12;;;;;;;3.33;1.43;;;9.60;99.90;;;;;;5092993;28;20614;-75
2022/10/25 01:55:46;;;;;;;2.57;1.30;;;9.50;99.90;;;;;;5092890;28;20200;-75
2022/10/25 01:58:24;;;;;;;2.20;1.40;;;9.40;99.90;;;;;;5092881;28;20196;-74
2022/10/25 02:00:58;;;;;;;2.43;1.37;;;9.20;99.90;;;;;;5092779;28;20196;-75
2022/10/25 02:03:33;;;;;;;2.60;1.53;;;9.20;99.90;;;;;;5092966;28;20609;-74
2022/10/25 02:06:13;;;;;;;2.13;1.50;;;9.30;99.90;;;;;;5092768;28;20219;-75
2022/10/25 02:08:46;;;;;;;2.40;1.30;;;9.50;99.90;;;;;;5092756;28;20681;-74
2022/10/25 02:11:21;;;;;;;4.23;1.60;;;9.70;99.90;;;;;;5092710;28;20208;-75
2022/10/25 02:13:56;;;;;;;2.30;1.67;;;9.70;99.90;;;;;;5092920;28;20196;-75
2022/10/25 02:16:26;;;;;;;3.23;1.87;;;9.60;99.90;;;;;;5092764;28;20260;-74
2022/10/25 02:18:58;;;;;;;3.03;2.00;;;9.50;99.90;;;;;;5092656;28;20226;-75
2022/10/25 02:21:27;;;;;;;5.40;2.07;;;9.60;99.90;;;;;;5092549;28;20664;-75
2022/10/25 02:23:54;;;;;;;3.00;2.00;;;9.50;99.90;;;;;;5092740;28;20317;-74
2022/10/25 02:26:22;;;;;;;5.60;1.97;;;9.40;99.90;;;;;;5092701;28;20220;-74
2022/10/25 02:28:49;;;;;;;2.63;1.70;;;9.40;99.90;;;;;;5092698;28;20201;-74
2022/10/25 02:31:19;;;;;;;4.37;2.40;;;9.40;99.90;;;;;;5092452;28;20701;-75
2022/10/25 02:33:47;;;;;;;2.67;2.33;;;9.60;99.90;;;;;;5092524;28;20204;-74
2022/10/25 02:36:19;;;;;;;2.37;1.70;;;9.60;99.90;;;;;;5092754;28;20197;-75
2022/10/25 02:38:47;;;;;;;5.73;1.93;;;9.70;99.90;;;;;;5092557;28;20309;-75
2022/10/25 02:41:14;;;;;;;3.37;1.90;;;9.80;99.90;;;;;;5092708;28;20207;-74
2022/10/25 02:43:41;;;;;;;4.27;2.13;;;9.90;99.90;;;;;;5092595;28;20196;-74
2022/10/25 02:46:09;;;;;;;2.73;1.70;;;10.00;99.90;;;;;;5092391;28;20220;-74
2022/10/25 02:48:36;;;;;;;3.33;1.30;;;10.00;99.90;;;;;;5092456;28;20204;-75
2022/10/25 02:51:03;;;;;;;2.67;1.47;;;10.10;99.90;;;;;;5092625;28;20291;-74
2022/10/25 02:53:31;;;;;;;5.33;1.70;;;10.10;99.90;;;;;;5092640;28;20250;-74
2022/10/25 02:56:01;;;;;;;3.90;1.80;;;10.10;99.90;;;;;;5092443;28;20197;-74
2022/10/25 02:58:30;;;;;;;4.97;1.80;;;10.10;99.90;;;;;;5092383;28;20224;-74
2022/10/25 03:00:57;;;;;;;2.10;1.50;;;10.10;99.90;;;;;;5092188;28;20201;-74
2022/10/25 03:03:23;;;;;;;2.67;1.60;;;10.10;99.90;;;;;;5092168;28;20262;-75
2022/10/25 03:05:50;;;;;;;4.97;1.60;;;10.10;99.90;;;;;;5092426;28;20200;-74
2022/10/25 03:08:17;;;;;;;5.23;1.77;;;10.10;99.90;;;;;;5092380;28;20200;-74
2022/10/25 03:10:45;;;;;;;4.40;1.77;;;10.10;99.90;;;;;;5092212;28;20246;-75
2022/10/25 03:13:12;;;;;;;2.10;1.90;;;10.00;99.90;;;;;;5095573;28;20200;-74
2022/10/25 03:15:38;;;;;;;4.50;2.00;;;9.90;99.90;;;;;;5095692;28;20197;-76
2022/10/25 03:18:05;;;;;;;3.23;1.90;;;9.80;99.90;;;;;;5095903;28;20204;-74
2022/10/25 03:20:32;;;;;;;5.60;2.23;;;9.60;99.90;;;;;;5095768;28;20253;-74
2022/10/25 03:22:58;;;;;;;2.67;2.00;;;9.50;99.90;;;;;;5095740;28;20196;-75
2022/10/25 03:25:25;;;;;;;2.30;1.90;;;9.40;99.90;;;;;;5095596;28;20196;-74
2022/10/25 03:27:53;;;;;;;4.83;2.30;;;9.40;99.90;;;;;;5095461;28;20220;-75
2022/10/25 03:30:20;;;;;;;4.10;1.90;;;9.40;99.90;;;;;;5095385;28;20200;-75
2022/10/25 03:32:47;;;;;;;3.93;2.17;;;9.30;99.90;;;;;;5095578;28;20261;-74
2022/10/25 03:35:14;;;;;;;5.93;2.40;;;9.20;99.90;;;;;;5095530;28;20253;-74
2022/10/25 03:37:40;;;;;;;4.03;2.00;;;9.30;99.90;;;;;;5095405;28;20602;-74
2022/10/25 03:40:08;;;;;;;2.53;2.00;;;9.30;99.90;;;;;;5095155;28;20225;-75
2022/10/25 03:42:35;;;;;;;5.50;2.50;;;9.40;99.90;;;;;;5095251;28;20192;-74
2022/10/25 03:45:03;;;;;;;2.20;2.00;;;9.40;99.90;;;;;;5095408;28;20258;-75
2022/10/25 03:47:30;;;;;;;2.50;2.30;;;9.60;99.90;;;;;;5095100;28;20365;-75
2022/10/25 03:49:56;;;;;;;4.23;2.30;;;9.50;99.90;;;;;;5095271;28;20326;-75
2022/10/25 03:52:23;;;;;;;6.77;2.00;;;9.50;99.90;;;;;;5094876;28;20748;-75
2022/10/25 03:54:49;;;;;;;6.43;2.37;;;9.50;99.90;;;;;;5095101;28;20251;-75
2022/10/25 03:57:16;;;;;;;3.47;2.20;;;9.40;99.90;;;;;;5094849;28;20265;-75
2022/10/25 03:59:43;;;;;;;6.40;2.77;;;9.40;99.90;;;;;;5095076;28;20262;-75
2022/10/25 04:02:11;;;;;;;5.33;2.50;;;9.50;99.90;;;;;;5095060;28;20219;-75
2022/10/25 04:04:38;;;;;;;3.07;2.77;;;9.50;99.90;;;;;;5094883;28;20242;-75
2022/10/25 04:07:05;;;;;;;5.93;3.00;;;9.50;99.90;;;;;;5094698;28;20224;-75
2022/10/25 04:09:31;;;;;;;3.97;2.53;;;9.40;99.90;;;;;;5094615;28;20196;-75
2022/10/25 04:11:58;;;;;;;5.60;2.90;;;9.30;99.90;;;;;;5094459;28;20197;-75
2022/10/25 04:14:25;;;;;;;5.37;2.83;;;9.30;99.90;;;;;;5094675;28;20250;-75
2022/10/25 04:16:52;;;;;;;3.83;2.47;;;9.30;99.90;;;;;;5094636;28;20204;-75
2022/10/25 04:19:20;;;;;;;4.87;2.90;;;9.30;99.90;;;;;;5094380;28;20651;-74
2022/10/25 04:21:46;;;;;;;6.30;2.60;;;9.30;99.90;;;;;;5094234;28;20216;-75
2022/10/25 04:24:13;;;;;;;5.43;2.70;;;9.20;99.90;;;;;;5094239;28;20204;-75
2022/10/25 04:26:40;;;;;;;5.87;3.00;;;9.20;99.90;;;;;;5094487;28;20220;-74
2022/10/25 04:29:07;;;;;;;5.37;3.00;;;9.40;99.90;;;;;;5094545;28;20196;-75
2022/10/25 04:31:34;;;;;;;7.90;3.60;;;9.40;99.90;;;;;;5094356;28;20230;-75
2022/10/25 04:34:00;;;;;;;6.70;3.10;;;9.60;99.90;;;;;;5094255;28;20204;-75
2022/10/25 04:36:30;;;;;;;4.93;2.93;;;9.80;99.90;;;;;;5094174;28;20200;-75
2022/10/25 04:38:56;;;;;;;6.70;2.73;;;9.80;99.90;;;;;;5093807;28;20262;-75
2022/10/25 04:41:23;;;;;;;8.77;3.70;;;9.80;99.90;;;;;;5094343;28;20253;-75
2022/10/25 04:43:51;;;;;;;3.00;2.50;;;9.90;99.90;;;;;;5094124;28;20201;-75
2022/10/25 04:46:18;;;;;;;4.50;3.13;;;10.00;99.90;;;;;;5094175;28;20196;-75
2022/10/25 04:48:45;;;;;;;5.90;2.80;;;10.00;99.90;;;;;;5093884;28;20220;-75
2022/10/25 04:51:12;;;;;;;6.10;3.00;;;9.90;99.90;;;;;;5093883;28;20200;-75
2022/10/25 04:53:40;;;;;;;5.47;3.40;;;9.90;99.90;;;;;;5093690;28;20196;-75
2022/10/25 04:56:09;;;;;;;5.23;3.53;;;9.70;99.90;;;;;;5093881;28;20594;-75
2022/10/25 04:58:36;;;;;;;6.43;3.20;;;9.60;99.90;;;;;;5093664;28;20200;-75
2022/10/25 05:01:05;;;;;;;6.30;3.10;;;9.60;99.90;;;;;;5093750;28;20200;-74
2022/10/25 05:03:32;;;;;;;7.40;3.27;;;9.60;99.90;;;;;;5093747;28;20643;-75
2022/10/25 05:06:08;;;;;;;11.47;3.10;;;9.60;99.90;;;;;;5093532;28;20648;-75
2022/10/25 05:08:35;;;;;;;4.07;2.77;;;9.60;99.90;;;;;;5093617;28;20231;-75
2022/10/25 05:11:03;;;;;;;7.37;3.10;;;9.80;99.90;;;;;;5093524;28;20203;-75
2022/10/25 05:13:32;;;;;;;5.27;3.20;;;9.90;99.90;;;;;;5093475;28;20261;-75
2022/10/25 05:15:59;;;;;;;6.97;4.10;;;9.90;99.90;;;;;;5093459;28;20231;-75
2022/10/25 05:18:26;;;;;;;10.43;3.27;;;9.90;99.90;;;;;;5093384;28;20655;-74
2022/10/25 05:20:53;;;;;;;9.07;3.60;;;9.90;99.90;;;;;;5093300;28;20245;-75
2022/10/25 05:23:20;;;;;;;5.07;3.60;;;9.90;99.90;;;;;;5093495;28;20207;-75
2022/10/25 05:25:47;;;;;;;7.70;3.90;;;9.80;99.90;;;;;;5093352;28;20594;-74
2022/10/25 05:28:15;;;;;;;6.07;4.03;;;9.80;99.90;;;;;;5093222;28;20224;-74
2022/10/25 05:30:42;;;;;;;5.53;4.07;;;9.90;99.90;;;;;;5093113;28;20238;-75
2022/10/25 05:33:09;;;;;;;7.10;4.13;;;10.00;99.90;;;;;;5093013;28;20728;-74
2022/10/25 05:35:36;;;;;;;8.23;4.20;;;10.10;99.90;;;;;;5092702;28;20246;-75
2022/10/25 05:38:02;;;;;;;6.47;4.07;;;10.10;99.90;;;;;;5093111;28;20196;-75
2022/10/25 05:40:29;;;;;;;6.73;4.10;;;10.10;99.90;;;;;;5092707;28;20239;-74
2022/10/25 05:42:56;;;;;;;8.57;3.90;;;10.20;99.90;;;;;;5092914;28;20246;-74
2022/10/25 05:45:24;;;;;;;5.73;3.80;;;10.30;99.90;;;;;;5093157;28;20329;-74
2022/10/25 05:47:50;;;;;;;7.03;3.73;;;10.40;99.90;;;;;;5092870;28;20262;-75
2022/10/25 05:50:17;;;;;;;6.63;3.47;;;10.40;99.90;;;;;;5092793;28;20610;-74
2022/10/25 05:52:44;;;;;;;7.90;3.50;;;10.40;99.90;;;;;;5092795;28;20630;-74
2022/10/25 05:55:11;;;;;;;6.50;3.47;;;10.40;99.90;;;;;;5092689;28;20253;-75
2022/10/25 05:57:37;;;;;;;6.10;3.73;;;10.40;99.90;;;;;;5092914;28;20203;-75
2022/10/25 06:00:05;;;;;;;5.73;3.67;;;10.40;99.90;;;;;;5093346;28;20201;-74
2022/10/25 06:02:34;;;;;;;9.03;4.43;;;10.40;99.90;;;;;;5092810;28;20216;-75
2022/10/25 06:05:01;;;;;;;6.57;4.23;;;10.40;99.90;;;;;;5092798;28;20250;-75
2022/10/25 06:07:27;;;;;;;6.53;4.40;;;10.40;99.90;;;;;;5092534;28;20687;-76
2022/10/25 06:09:54;;;;;;;4.27;3.80;;;10.30;99.90;;;;;;5092650;28;20200;-75
2022/10/25 06:12:20;;;;;;;7.67;3.70;;;10.20;99.90;;;;;;5092170;28;20196;-75
2022/10/25 06:14:47;;;;;;;8.30;4.37;;;10.30;99.90;;;;;;5092605;28;20204;-75
2022/10/25 06:17:14;;;;;;;5.33;3.70;;;10.30;99.90;;;;;;5092738;28;20265;-75
2022/10/25 06:19:42;;;;;;;8.57;4.13;;;10.40;99.90;;;;;;5092828;28;20598;-75
2022/10/25 06:22:08;;;;;;;7.43;4.10;;;10.40;99.90;;;;;;5092757;28;20241;-75
2022/10/25 06:24:35;;;;;;;7.87;4.53;;;10.50;99.90;;;;;;5092526;28;20200;-75
2022/10/25 06:27:01;;;;;;;7.17;4.20;;;10.60;99.90;;;;;;5092457;28;20200;-76
2022/10/25 06:29:28;;;;;;;5.83;4.00;;;10.60;99.90;;;;;;5092474;28;20648;-76
2022/10/25 06:31:55;;;;;;;8.43;4.30;;;10.60;99.90;;;;;;5092671;28;20196;-76
2022/10/25 06:34:21;;;;;;;6.17;4.00;;;10.70;99.90;;;;;;5092607;28;20260;-77
2022/10/25 06:36:49;;;;;;;5.20;3.53;;;10.80;99.90;;;;;;5092510;28;20192;-75
2022/10/25 06:39:16;;;;;;;7.00;4.10;;;10.80;99.90;;;;;;5092231;28;20232;-76
2022/10/25 06:41:43;;;;;;;8.43;3.70;;;10.80;99.90;;;;;;5092371;28;20721;-75
2022/10/25 06:44:09;;;;;;;7.60;3.80;;;10.90;99.90;;;;;;5092323;28;20201;-76
2022/10/25 06:46:37;;;;;;;6.33;3.57;;;10.90;99.90;;;;;;5095075;28;20208;-76
2022/10/25 06:49:04;;;;;;;8.43;3.87;;;11.00;99.90;;;;;;5096175;28;20220;-76
2022/10/25 06:51:32;;;;;;;4.90;3.10;;;11.20;99.90;;;;;;5096157;28;20196;-76
2022/10/25 06:54:03;;;;;;;6.80;3.30;;;11.30;99.90;;;;;;5096036;28;20253;-75
2022/10/25 06:56:30;;;;;;;6.57;3.37;;;11.40;99.90;;;;;;5095750;28;20197;-76
2022/10/25 06:58:57;;;;;;;9.53;3.10;;;11.50;99.90;;;;;;5096195;28;20223;-77
2022/10/25 07:01:25;;;;;;;5.97;2.70;;;11.60;99.90;;;;;;5095922;28;20193;-76
2022/10/25 07:03:53;;;;;;;6.10;2.77;;;11.60;99.90;;;;;;5095630;28;20237;-76
2022/10/25 07:06:23;;;;;;;5.30;2.67;;;11.70;99.90;;;;;;5095369;28;20670;-75
2022/10/25 07:08:53;;;;;;;4.67;2.60;;;11.80;99.90;;;;;;5095237;28;20310;-75
2022/10/25 07:11:22;;;;;;;6.37;2.73;;;11.90;99.90;;;;;;5095697;28;20196;-75
2022/10/25 07:13:49;;;;;;;9.10;2.57;;;11.90;99.90;;;;;;5095553;28;20192;-76
2022/10/25 07:16:18;;;;;;;5.60;2.93;;;12.00;99.90;;;;;;5095710;28;20254;-78
2022/10/25 07:18:45;;;;;;;8.47;2.50;;;12.10;99.90;;;;;;5095586;28;20204;-76
2022/10/25 07:21:13;;;;;;;6.63;2.80;;;12.10;99.90;;;;;;5095365;28;20246;-77
2022/10/25 07:23:41;;;;;;;7.37;2.50;;;12.30;99.90;;;;;;5095311;28;20246;-78
2022/10/25 07:26:08;;;;;;;7.40;2.43;;;12.40;99.90;;;;;;5095668;28;20227;-77
2022/10/25 07:28:37;;;;;;;5.83;2.43;;;12.50;99.90;;;;;;5095396;28;20269;-78
2022/10/25 07:31:04;;;;;;;5.97;2.80;;;12.60;99.90;;;;;;5095406;28;20197;-78
2022/10/25 07:33:31;;;;;;;5.77;2.00;;;12.70;99.90;;;;;;5095305;28;20200;-78
2022/10/25 07:35:58;;;;;;;6.40;2.40;;;12.70;99.90;;;;;;5094795;28;20205;-76
2022/10/25 07:41:00;;;;;;;6.80;2.70;;;12.80;99.90;;;;;;5135617;23;20222;-75
2022/10/25 07:43:28;;;;;;;7.90;2.90;;;12.80;99.90;;;;;;5015159;28;20199;-76
2022/10/25 07:45:56;;;;;;;22.07;5.60;;;12.80;99.90;;;;;;5015373;28;20199;-76
2022/10/25 07:48:23;;;;;;;16.97;3.73;;;12.90;99.90;;;;;;5014655;28;20280;-76
2022/10/25 07:50:50;;;;;;;11.57;2.83;;;12.90;99.90;;;;;;5014547;28;20194;-76
2022/10/25 07:53:17;;;;;;;6.70;2.77;;;13.10;99.90;;;;;;5014991;28;20203;-75
2022/10/25 07:55:49;;;;;;;6.40;2.90;;;13.20;99.90;;;;;;5015150;28;20249;-76
2022/10/25 07:58:16;;;;;;;5.60;2.47;;;13.20;99.90;;;;;;5014301;28;20207;-76
2022/10/25 08:00:43;;;;;;;7.23;2.80;;;13.10;99.90;;;;;;5012966;28;20199;-77
2022/10/25 08:03:12;;;;;;;4.67;2.80;;;13.20;99.90;;;;;;5014040;28;20199;-76
2022/10/25 08:05:38;;;;;;;7.10;3.27;;;13.30;99.90;;;;;;5014617;28;20207;-78
2022/10/25 08:08:05;;;;;;;7.17;2.77;;;13.30;99.90;;;;;;5014563;28;20219;-78
2022/10/25 08:10:32;;;;;;;5.10;2.60;;;13.40;99.90;;;;;;5014332;28;20203;-77
2022/10/25 08:12:59;;;;;;;5.17;2.40;;;13.30;99.90;;;;;;5014659;28;20253;-76
2022/10/25 08:15:25;;;;;;;8.83;2.90;;;13.60;99.90;;;;;;5013581;28;20202;-76
2022/10/25 08:17:58;;;;;;;4.83;2.60;;;13.70;99.90;;;;;;5014330;28;20207;-77
2022/10/25 08:20:26;;;;;;;6.63;2.63;;;13.70;99.90;;;;;;5013237;28;20237;-75
2022/10/25 08:22:55;;;;;;;11.50;3.13;;;13.50;99.90;;;;;;5013941;28;20654;-76
2022/10/25 08:25:21;;;;;;;5.57;2.33;;;13.40;99.90;;;;;;5014164;28;20669;-76
2022/10/25 08:27:48;;;;;;;3.67;2.10;;;13.40;99.90;;;;;;5014016;28;20199;-76
2022/10/25 08:30:16;;;;;;;7.00;2.90;;;13.40;99.90;;;;;;5014172;28;20199;-76
2022/10/25 08:32:42;;;;;;;6.10;2.70;;;13.70;99.90;;;;;;5014230;28;20263;-76
2022/10/25 08:35:09;;;;;;;5.40;2.73;;;14.10;99.90;;;;;;5013861;28;20724;-76
2022/10/25 08:37:37;;;;;;;6.70;2.20;;;14.40;99.90;;;;;;5014112;28;20253;-76
2022/10/25 08:40:05;;;;;;;5.63;2.60;;;14.70;99.90;;;;;;5013811;28;20227;-76
2022/10/25 08:42:41;;;;;;;4.10;2.30;;;14.50;99.90;;;;;;5013995;28;20253;-76
2022/10/25 08:45:16;;;;;;;5.53;2.20;;;14.30;99.90;;;;;;5013863;28;20206;-75
2022/10/25 08:47:45;;;;;;;7.10;2.80;;;14.20;99.90;;;;;;5013665;28;20198;-77
2022/10/25 08:50:16;;;;;;;8.27;2.30;;;14.50;99.90;;;;;;5013868;28;20199;-76
2022/10/25 08:52:47;;;;;;;9.87;3.13;;;14.70;99.90;;;;;;5013892;28;20203;-77
2022/10/25 08:55:17;;;;;;;3.93;2.40;;;14.80;99.90;;;;;;5013328;28;20230;-77
2022/10/25 08:57:46;;;;;;;5.90;2.50;;;14.90;99.90;;;;;;5013665;28;20203;-78
2022/10/25 09:00:18;;;;;;;4.33;2.43;;;15.00;99.90;;;;;;5013171;28;20680;-78
2022/10/25 09:02:50;;;;;;;6.40;2.50;;;15.00;99.90;;;;;;5013730;28;20293;-78
2022/10/25 09:05:31;;;;;;;6.27;2.63;;;14.90;99.90;;;;;;5013449;28;20254;-78
2022/10/25 09:08:23;;;;;;;7.80;2.67;;;14.90;99.90;;;;;;5013319;28;20198;-77
2022/10/25 09:10:54;;;;;;;3.90;2.43;;;14.90;99.90;;;;;;5012723;28;20740;-76
2022/10/25 09:13:32;;;;;;;6.13;2.77;;;14.90;99.90;;;;;;5013393;28;20257;-78
2022/10/25 09:16:14;;;;;;;5.23;2.43;;;14.90;99.90;;;;;;5013404;28;20511;-80
2022/10/25 09:18:47;;;;;;;6.30;2.23;;;15.10;99.90;;;;;;5013167;28;20214;-77
2022/10/25 09:21:18;;;;;;;4.27;2.20;;;15.50;99.90;;;;;;5013424;28;20210;-78
2022/10/25 09:23:56;;;;;;;4.03;2.33;;;15.60;99.90;;;;;;5013310;28;20642;-77
2022/10/25 09:26:41;;;;;;;4.50;2.55;;;15.50;99.90;;;;;;5013006;28;20657;-77
2022/10/25 09:29:17;;;;;;;5.80;2.78;;;15.90;99.90;;;;;;5012887;28;20227;-77
2022/10/25 09:31:48;;;;;;;14.25;2.33;;;16.40;99.90;;;;;;5012928;28;20534;-78
2022/10/25 09:34:18;;;;;;;3.58;2.20;;;16.50;99.90;;;;;;5013152;28;20625;-77
2022/10/25 09:36:47;;;;;;;3.78;2.28;;;16.30;99.90;;;;;;5013222;28;20199;-78
2022/10/25 09:39:20;;;;;;;9.55;2.47;;;16.50;99.90;;;;;;5012613;28;20230;-77
2022/10/25 09:41:51;;;;;;;6.97;2.70;;;16.80;99.90;;;;;;5012947;28;20217;-77
2022/10/25 09:44:29;;;;;;;6.20;2.42;;;16.70;99.90;;;;;;5012941;28;20209;-76
2022/10/25 09:47:01;;;;;;;5.60;2.72;;;16.30;99.90;;;;;;5013236;28;20195;-77
2022/10/25 09:49:36;;;;;;;5.10;2.53;;;15.90;99.90;;;;;;5012947;28;20223;-78
2022/10/25 09:52:12;;;;;;;8.13;2.45;;;15.80;99.90;;;;;;5012909;28;20206;-76
2022/10/25 09:54:45;;;;;;;4.60;2.70;;;16.10;99.90;;;;;;5013174;28;20272;-76
2022/10/25 09:57:12;;;;;;;4.22;2.10;;;16.50;99.90;;;;;;5013141;28;20226;-76
2022/10/25 09:59:39;;;;;;;6.43;2.20;;;16.50;99.90;;;;;;5013286;28;20249;-76
2022/10/25 10:02:06;;;;;;;6.47;2.70;;;16.60;99.90;;;;;;5013246;28;20233;-76
2022/10/25 10:04:35;;;;;;;5.18;2.38;;;16.40;99.90;;;;;;5014100;28;20690;-76
2022/10/25 10:07:06;;;;;;;5.57;2.28;;;16.30;99.90;;;;;;5014520;28;20202;-77
2022/10/25 10:09:36;;;;;;;5.25;2.10;;;16.20;99.90;;;;;;5013825;28;20235;-76
2022/10/25 10:12:06;;;;;;;4.95;2.00;;;16.10;99.90;;;;;;5013529;28;20210;-77
2022/10/25 10:14:39;;;;;;;4.82;2.13;;;16.20;99.90;;;;;;5013208;28;20332;-76
2022/10/25 10:17:10;;;;;;;4.82;1.95;;;16.30;99.90;;;;;;5014255;28;20223;-78
2022/10/25 10:19:37;;;;;;;5.13;2.03;;;16.10;99.90;;;;;;5014959;28;20195;-76
2022/10/25 10:22:08;;;;;;;6.90;2.20;;;15.90;99.90;;;;;;5017159;28;20199;-77
2022/10/25 10:24:37;;;;;;;19.13;3.83;;;16.00;99.90;;;;;;5017606;28;20724;-77
2022/10/25 10:27:07;;;;;;;8.33;2.93;;;15.80;99.90;;;;;;5018366;28;20195;-77
2022/10/25 10:29:36;;;;;;;4.82;2.05;;;15.80;99.90;;;;;;5019327;28;20219;-76
2022/10/25 10:32:05;;;;;;;3.70;1.83;;;15.70;99.90;;;;;;5017889;28;20262;-77
2022/10/25 10:34:36;;;;;;;3.37;1.87;;;15.60;99.90;;;;;;5017210;28;20289;-76
2022/10/25 10:37:14;;;;;;;6.77;2.00;;;15.70;99.90;;;;;;5017093;28;20265;-76
2022/10/25 10:39:49;;;;;;;5.80;2.27;;;15.60;99.90;;;;;;5016504;28;20318;-75
2022/10/25 10:42:18;;;;;;;7.17;2.33;;;15.70;99.90;;;;;;5017151;28;20281;-75
2022/10/25 10:45:02;;;;;;;3.90;2.10;;;15.60;99.90;;;;;;5017188;28;20199;-76
2022/10/25 10:47:33;;;;;;;5.27;2.03;;;15.50;99.90;;;;;;5016924;28;20527;-75
2022/10/25 10:50:01;;;;;;;6.57;2.37;;;15.50;99.90;;;;;;5016239;28;20230;-75
2022/10/25 10:52:30;;;;;;;4.67;1.70;;;15.60;99.90;;;;;;5016081;28;20226;-77
2022/10/25 10:54:59;;;;;;;5.47;2.23;;;15.60;99.90;;;;;;5013430;28;20254;-74
2022/10/25 10:57:31;;;;;;;7.50;1.80;;;15.50;99.90;;;;;;5013772;28;20531;-75
2022/10/25 10:59:59;;;;;;;3.23;1.47;;;15.60;99.90;;;;;;5013735;28;20199;-76
2022/10/25 11:02:35;;;;;;;5.03;1.87;;;16.20;99.90;;;;;;5013567;28;20203;-74
2022/10/25 11:05:02;;;;;;;6.10;1.98;;;16.30;99.90;;;;;;5013490;28;20250;-74
2022/10/25 11:07:32;;;;;;;8.27;2.20;;;17.00;99.90;;;;;;5014299;28;20711;-75
2022/10/25 11:10:21;;;;;;;4.32;2.10;;;17.50;99.90;;;;;;5009894;28;20226;-76
2022/10/25 11:13:05;;;;;;;3.90;2.08;;;21.20;99.90;;;;;;5003980;28;20225;-75
2022/10/25 11:15:42;;;;;;;5.72;1.75;;;23.00;99.90;;;;;;5015576;28;20574;-75
2022/10/25 11:18:11;;;;;;;5.57;2.13;;;23.30;99.90;;;;;;5015734;28;20198;-75
2022/10/25 11:20:50;;;;;;;3.33;1.73;;;21.80;99.90;;;;;;5015222;28;20192;-73
2022/10/25 11:23:25;;;;;;;6.40;1.88;;;22.00;99.90;;;;;;5015674;28;20257;-76
2022/10/25 11:25:58;;;;;;;5.10;1.60;;;21.30;99.90;;;;;;5015783;28;20607;-82
2022/10/25 11:28:37;;;;;;;5.25;1.90;;;19.20;99.90;;;;;;5015395;28;20558;-75
2022/10/25 11:31:15;;;;;;;5.57;1.67;;;20.10;99.90;;;;;;5014694;28;20202;-75
2022/10/25 11:33:57;;;;;;;4.45;1.55;;;22.40;99.90;;;;;;5013600;28;20205;-75
2022/10/25 11:36:34;;;;;;;5.20;2.10;;;23.20;99.90;;;;;;5014773;28;20203;-75
2022/10/25 11:39:15;;;;;;;4.22;1.85;;;23.50;99.90;;;;;;5014784;28;20198;-75
2022/10/25 11:41:47;;;;;;;4.38;1.50;;;23.40;99.90;;;;;;5014770;28;20199;-75
2022/10/25 11:44:38;;;;;;;5.22;1.60;;;23.70;99.90;;;;;;5015084;28;20207;-75
2022/10/25 11:47:16;;;;;;;4.00;1.30;;;24.00;99.90;;;;;;5015344;28;20199;-75
2022/10/25 11:49:56;;;;;;;3.25;1.67;;;22.70;99.90;;;;;;5015077;28;20305;-75
2022/10/25 11:52:43;;;;;;;3.55;1.83;;;21.10;99.90;;;;;;5014997;28;20199;-75
2022/10/25 11:55:20;;;;;;;4.35;1.50;;;20.70;99.90;;;;;;5014955;28;20253;-75
2022/10/25 11:57:53;;;;;;;6.30;1.90;;;18.30;99.90;;;;;;5015235;28;20199;-75
2022/10/25 12:00:23;;;;;;;4.78;1.60;;;18.10;99.90;;;;;;5014651;28;20662;-76
2022/10/25 12:03:03;;;;;;;4.63;1.85;;;18.00;99.90;;;;;;5014526;28;20253;-75
2022/10/25 12:05:40;;;;;;;4.90;1.50;;;17.70;99.90;;;;;;5013399;28;20195;-75
2022/10/25 12:08:20;;;;;;;7.78;2.20;;;17.60;99.90;;;;;;5014500;28;20202;-76
2022/10/25 12:10:49;;;;;;;7.72;1.77;;;17.80;99.90;;;;;;5014727;28;20222;-75
2022/10/25 12:13:20;;;;;;;5.43;1.65;;;20.10;99.90;;;;;;5014607;28;20582;-75
2022/10/25 12:15:50;;;;;;;4.07;1.60;;;21.90;99.90;;;;;;5014695;28;20600;-76
2022/10/25 12:18:21;;;;;;;3.80;1.45;;;21.50;99.90;;;;;;5014509;28;20261;-76
2022/10/25 12:20:49;;;;;;;4.30;1.85;;;19.70;99.90;;;;;;5014716;28;20257;-76
2022/10/25 12:23:18;;;;;;;5.78;1.70;;;19.60;99.90;;;;;;5014570;28;20203;-76
2022/10/25 12:25:49;;;;;;;4.65;1.67;;;19.50;99.90;;;;;;5014498;28;20199;-76
2022/10/25 12:28:22;;;;;;;3.20;1.70;;;19.30;99.90;;;;;;5014318;28;20562;-76
2022/10/25 12:30:56;;;;;;;6.00;1.80;;;19.00;99.90;;;;;;5014628;28;20227;-75
2022/10/25 12:33:31;;;;;;;3.78;1.80;;;22.60;99.90;;;;;;5014309;28;20605;-75
2022/10/25 12:36:01;;;;;;;5.03;1.98;;;21.70;99.90;;;;;;5014230;28;20264;-76
2022/10/25 12:38:33;;;;;;;4.05;1.80;;;19.20;99.90;;;;;;5014261;28;20290;-76
2022/10/25 12:41:04;;;;;;;7.50;1.90;;;18.70;99.90;;;;;;5013986;28;20641;-76
2022/10/25 12:43:36;;;;;;;4.47;1.58;;;18.00;99.90;;;;;;5013882;28;20601;-74
2022/10/25 12:46:33;;;;;;;4.72;1.95;;;17.70;99.90;;;;;;5014221;28;20199;-75
2022/10/25 12:49:14;;;;;;;4.57;1.83;;;17.50;99.90;;;;;;5014052;28;20221;-74
2022/10/25 12:51:54;;;;;;;6.07;2.08;;;17.30;99.90;;;;;;5014001;28;20257;-76
2022/10/25 12:54:43;;;;;;;5.22;2.30;;;17.40;99.90;;;;;;5014122;28;20300;-74
2022/10/25 12:57:18;;;;;;;4.53;1.95;;;17.20;99.90;;;;;;5013979;28;20203;-76
2022/10/25 12:59:56;;;;;;;5.10;1.67;;;17.20;99.90;;;;;;5013757;28;20241;-75
2022/10/25 13:05:41;;;;;;;6.30;2.20;;;18.10;99.90;;;;;;5131272;27;20323;-75
2022/10/25 13:08:09;;;;;;;5.65;2.20;;;22.80;99.90;;;;;;5110452;28;20728;-75
2022/10/25 13:10:43;;;;;;;6.97;2.17;;;24.90;99.90;;;;;;5110672;28;20196;-75